createdAt,value
2022-12-31T00:00:06.374Z,10.51
2022-12-31T00:02:33.058Z,10.41
2022-12-31T00:04:59.666Z,10.62
2022-12-31T00:07:26.252Z,10.77
2022-12-31T00:09:52.831Z,10.66
2022-12-31T00:12:19.425Z,10.59
2022-12-31T00:14:45.968Z,10.71
2022-12-31T00:17:12.541Z,10.82
2022-12-31T00:19:39.103Z,10.70
2022-12-31T00:22:05.660Z,10.72
2022-12-31T00:24:32.188Z,10.79
2022-12-31T00:26:58.707Z,10.41
2022-12-31T00:29:25.325Z,10.18
2022-12-31T00:31:51.915Z,9.84
2022-12-31T00:34:18.495Z,9.64
2022-12-31T00:36:46.077Z,9.45
2022-12-31T00:39:13.195Z,9.56
2022-12-31T00:41:40.183Z,9.26
2022-12-31T00:44:06.735Z,9.21
2022-12-31T00:46:33.535Z,9.35
2022-12-31T00:49:00.133Z,9.37
2022-12-31T00:51:27.882Z,9.15
2022-12-31T00:53:56.030Z,9.03
2022-12-31T00:56:25.406Z,8.98
2022-12-31T00:58:51.959Z,9.12
2022-12-31T01:01:30.397Z,9.05
2022-12-31T01:04:09.995Z,8.93
2022-12-31T01:06:37.251Z,9.11
2022-12-31T01:09:04.597Z,9.01
2022-12-31T01:11:31.265Z,9.22
2022-12-31T01:14:07.412Z,9.21
2022-12-31T01:16:37.742Z,9.22
2022-12-31T01:19:07.855Z,9.09
2022-12-31T01:21:35.879Z,9.05
2022-12-31T01:24:02.422Z,8.87
2022-12-31T01:26:29.569Z,8.92
2022-12-31T01:28:56.266Z,8.81
2022-12-31T01:31:24.266Z,8.89
2022-12-31T01:33:51.621Z,8.93
2022-12-31T01:36:25.978Z,8.77
2022-12-31T01:38:57.276Z,8.87
2022-12-31T01:41:26.659Z,9.02
2022-12-31T01:43:59.639Z,8.98
2022-12-31T01:46:44.765Z,8.99
2022-12-31T01:49:17.112Z,9.17
2022-12-31T01:51:48.920Z,9.12
2022-12-31T01:54:18.808Z,9.20
2022-12-31T01:56:49.043Z,9.19
2022-12-31T01:59:17.504Z,9.16
2022-12-31T02:01:46.659Z,9.22
2022-12-31T02:04:15.493Z,9.04
2022-12-31T02:06:48.062Z,9.27
2022-12-31T02:09:14.703Z,9.32
2022-12-31T02:11:41.301Z,9.34
2022-12-31T02:14:22.823Z,9.34
2022-12-31T02:17:30.205Z,9.35
2022-12-31T02:19:56.794Z,9.26
2022-12-31T02:22:44.357Z,9.56
2022-12-31T02:25:44.920Z,9.76
2022-12-31T02:28:39.239Z,10.04
2022-12-31T02:31:16.732Z,9.82
2022-12-31T02:33:49.743Z,10.17
2022-12-31T02:36:22.819Z,10.44
2022-12-31T02:38:50.134Z,10.81
2022-12-31T02:41:38.170Z,11.40
2022-12-31T02:44:21.527Z,11.51
2022-12-31T02:47:13.210Z,11.71
2022-12-31T02:50:01.380Z,11.86
2022-12-31T02:52:57.146Z,11.99
2022-12-31T02:55:38.861Z,12.04
2022-12-31T02:58:11.541Z,12.17
2022-12-31T03:01:12.875Z,12.28
2022-12-31T03:03:39.914Z,12.24
2022-12-31T03:06:09.058Z,12.12
2022-12-31T03:08:58.890Z,12.34
2022-12-31T03:11:43.713Z,12.56
2022-12-31T03:14:10.228Z,12.70
2022-12-31T03:16:36.833Z,12.80
2022-12-31T03:19:22.088Z,12.82
2022-12-31T03:22:06.884Z,12.84
2022-12-31T03:24:51.762Z,12.83
2022-12-31T03:27:18.318Z,12.78
2022-12-31T03:29:44.832Z,12.91
2022-12-31T03:32:11.376Z,12.90
2022-12-31T03:34:53.024Z,12.91
2022-12-31T03:37:37.875Z,12.93
2022-12-31T03:40:24.260Z,12.98
2022-12-31T03:43:16.842Z,12.98
2022-12-31T03:45:44.593Z,13.06
2022-12-31T03:48:12.987Z,13.03
2022-12-31T03:50:40.985Z,13.12
2022-12-31T03:53:15.699Z,13.14
2022-12-31T03:55:45.783Z,13.25
2022-12-31T03:58:17.150Z,13.23
2022-12-31T04:00:59.659Z,13.15
2022-12-31T04:03:32.229Z,12.96
2022-12-31T04:06:10.187Z,12.97
2022-12-31T04:08:45.863Z,13.02
2022-12-31T04:11:20.659Z,13.09
2022-12-31T04:13:59.539Z,13.17
2022-12-31T04:16:28.854Z,13.11
2022-12-31T04:19:04.012Z,13.21
2022-12-31T04:21:35.319Z,13.24
2022-12-31T04:24:08.421Z,13.26
2022-12-31T04:26:41.925Z,13.28
2022-12-31T04:29:13.097Z,13.35
2022-12-31T04:31:43.195Z,13.35
2022-12-31T04:34:16.540Z,13.36
2022-12-31T04:36:57.900Z,13.28
2022-12-31T04:39:33.443Z,13.23
2022-12-31T04:47:27.969Z,13.25
2022-12-31T04:50:08.269Z,13.08
2022-12-31T04:52:46.622Z,13.51
2022-12-31T04:55:16.769Z,13.45
2022-12-31T04:57:43.675Z,13.42
2022-12-31T05:00:16.345Z,13.60
2022-12-31T05:02:48.002Z,13.72
2022-12-31T05:05:14.909Z,13.78
2022-12-31T05:07:42.365Z,13.86
2022-12-31T05:10:13.951Z,14.04
2022-12-31T05:12:43.044Z,14.04
2022-12-31T05:15:13.329Z,14.09
2022-12-31T05:17:40.348Z,14.06
2022-12-31T05:20:07.899Z,14.00
2022-12-31T05:22:34.796Z,14.09
2022-12-31T05:25:01.464Z,14.13
2022-12-31T05:27:31.217Z,14.20
2022-12-31T05:29:58.055Z,14.21
2022-12-31T05:32:24.643Z,14.19
2022-12-31T05:34:51.231Z,14.23
2022-12-31T05:37:17.816Z,14.18
2022-12-31T05:39:44.327Z,14.13
2022-12-31T05:42:10.871Z,14.17
2022-12-31T05:44:37.414Z,14.12
2022-12-31T05:47:04.053Z,14.21
2022-12-31T05:49:30.576Z,14.20
2022-12-31T05:51:57.140Z,14.12
2022-12-31T05:54:23.698Z,14.24
2022-12-31T05:56:50.284Z,14.13
2022-12-31T05:59:16.844Z,14.09
2022-12-31T06:01:43.407Z,14.04
2022-12-31T06:04:10.004Z,14.07
2022-12-31T06:06:36.586Z,13.98
2022-12-31T06:09:04.531Z,14.12
2022-12-31T06:11:31.058Z,14.18
2022-12-31T06:13:58.404Z,14.17
2022-12-31T06:16:25.481Z,14.05
2022-12-31T06:18:52.257Z,14.06
2022-12-31T06:21:19.778Z,13.89
2022-12-31T06:23:46.719Z,13.99
2022-12-31T06:26:13.829Z,14.08
2022-12-31T06:28:40.363Z,14.01
2022-12-31T06:31:09.512Z,14.01
2022-12-31T06:33:36.871Z,14.01
2022-12-31T06:36:05.907Z,14.01
2022-12-31T06:38:34.716Z,14.16
2022-12-31T06:41:05.694Z,14.10
2022-12-31T06:43:32.237Z,14.10
2022-12-31T06:46:07.226Z,14.05
2022-12-31T06:48:34.062Z,14.00
2022-12-31T06:51:15.043Z,14.00
2022-12-31T06:53:44.261Z,13.99
2022-12-31T06:56:16.692Z,14.04
2022-12-31T06:58:43.569Z,14.01
2022-12-31T07:01:48.050Z,14.01
2022-12-31T07:04:17.431Z,13.98
2022-12-31T07:06:50.918Z,13.99
2022-12-31T07:09:37.023Z,14.10
2022-12-31T07:12:03.519Z,14.12
2022-12-31T07:14:46.647Z,14.14
2022-12-31T07:17:32.074Z,14.08
2022-12-31T07:20:12.374Z,14.11
2022-12-31T07:22:39.443Z,14.14
2022-12-31T07:25:07.330Z,14.15
2022-12-31T07:28:08.031Z,14.19
2022-12-31T07:30:48.854Z,14.16
2022-12-31T07:33:22.306Z,14.12
2022-12-31T07:36:13.287Z,14.24
2022-12-31T07:39:06.046Z,14.27
2022-12-31T07:42:03.355Z,14.37
2022-12-31T07:44:37.430Z,14.43
2022-12-31T07:47:05.776Z,14.51
2022-12-31T07:49:33.995Z,14.67
2022-12-31T07:52:00.836Z,14.72
2022-12-31T07:54:27.373Z,14.79
2022-12-31T07:56:54.005Z,14.79
2022-12-31T07:59:35.315Z,14.84
2022-12-31T08:02:17.019Z,15.03
2022-12-31T08:05:00.674Z,15.13
2022-12-31T08:08:19.704Z,15.28
2022-12-31T08:11:18.738Z,15.38
2022-12-31T08:13:45.802Z,15.64
2022-12-31T08:16:13.812Z,15.61
2022-12-31T08:18:41.055Z,15.65
2022-12-31T08:21:14.328Z,15.71
2022-12-31T08:24:09.361Z,15.91
2022-12-31T08:26:53.425Z,15.98
2022-12-31T08:29:38.763Z,15.96
2022-12-31T08:32:11.320Z,15.99
2022-12-31T08:35:04.199Z,16.14
2022-12-31T08:37:44.827Z,16.24
2022-12-31T08:40:26.520Z,16.26
2022-12-31T08:43:45.062Z,16.32
2022-12-31T08:46:22.905Z,16.32
2022-12-31T08:48:49.823Z,16.39
2022-12-31T08:51:22.428Z,16.31
2022-12-31T08:53:50.197Z,16.34
2022-12-31T08:56:34.858Z,16.31
2022-12-31T08:59:01.387Z,16.34
2022-12-31T09:01:38.012Z,16.38
2022-12-31T09:04:13.742Z,16.41
2022-12-31T09:06:52.131Z,16.46
2022-12-31T09:09:24.546Z,16.42
2022-12-31T09:12:06.238Z,16.46
2022-12-31T09:14:41.863Z,16.56
2022-12-31T09:17:29.575Z,16.61
2022-12-31T09:19:56.490Z,16.68
2022-12-31T09:22:23.765Z,16.73
2022-12-31T09:24:50.681Z,16.77
2022-12-31T09:27:20.059Z,16.73
2022-12-31T09:30:05.466Z,16.81
2022-12-31T09:32:41.657Z,16.80
2022-12-31T09:35:20.421Z,16.85
2022-12-31T09:37:56.115Z,16.90
2022-12-31T09:40:39.262Z,16.90
2022-12-31T09:43:39.345Z,16.93
2022-12-31T09:46:11.754Z,17.00
2022-12-31T09:49:07.769Z,17.02
2022-12-31T09:51:49.039Z,17.00
2022-12-31T09:54:21.640Z,16.94
2022-12-31T09:57:06.313Z,16.96
2022-12-31T09:59:52.022Z,16.97
2022-12-31T10:02:37.131Z,16.96
2022-12-31T10:05:38.870Z,17.00
2022-12-31T10:08:20.002Z,17.08
2022-12-31T10:10:53.803Z,16.96
2022-12-31T10:13:32.820Z,17.06
2022-12-31T10:15:59.289Z,17.06
2022-12-31T10:18:43.911Z,17.12
2022-12-31T10:21:21.380Z,17.15
2022-12-31T10:24:00.023Z,17.17
2022-12-31T10:26:53.226Z,17.25
2022-12-31T10:29:31.931Z,17.27
2022-12-31T10:32:16.636Z,17.35
2022-12-31T10:34:55.366Z,17.30
2022-12-31T10:37:32.565Z,17.32
2022-12-31T10:40:30.418Z,17.36
2022-12-31T10:43:27.761Z,17.43
2022-12-31T10:46:29.832Z,17.48
2022-12-31T10:49:27.501Z,17.40
2022-12-31T10:51:53.981Z,17.37
2022-12-31T10:54:48.168Z,17.44
2022-12-31T10:57:29.922Z,17.41
2022-12-31T11:00:02.164Z,17.41
2022-12-31T11:02:40.716Z,17.40
2022-12-31T11:05:27.515Z,17.41
2022-12-31T11:08:03.274Z,17.42
2022-12-31T11:10:56.173Z,17.43
2022-12-31T11:13:45.893Z,17.47
2022-12-31T11:16:36.693Z,17.57
2022-12-31T11:19:18.340Z,17.55
2022-12-31T11:22:13.220Z,17.56
2022-12-31T11:24:42.489Z,17.58
2022-12-31T11:27:21.167Z,17.55
2022-12-31T11:30:09.657Z,17.61
2022-12-31T11:32:45.475Z,17.64
2022-12-31T11:35:21.304Z,17.73
2022-12-31T11:37:50.910Z,17.73
2022-12-31T11:40:54.235Z,17.77
2022-12-31T11:43:30.770Z,17.71
2022-12-31T11:46:34.839Z,17.75
2022-12-31T11:49:28.394Z,17.77
2022-12-31T11:52:27.946Z,17.78
2022-12-31T11:55:02.421Z,17.81
2022-12-31T11:57:37.710Z,17.89
2022-12-31T12:00:20.850Z,17.90
2022-12-31T12:02:53.985Z,17.90
2022-12-31T12:05:23.870Z,17.95
2022-12-31T12:07:51.889Z,18.04
2022-12-31T12:10:25.268Z,18.03
2022-12-31T12:12:56.508Z,18.17
2022-12-31T12:15:33.422Z,18.22
2022-12-31T12:18:08.086Z,18.22
2022-12-31T12:20:37.392Z,18.29
2022-12-31T12:23:16.409Z,18.33
2022-12-31T12:25:44.260Z,18.32
2022-12-31T12:28:24.874Z,18.40
2022-12-31T12:31:05.119Z,18.44
2022-12-31T12:33:43.061Z,18.49
2022-12-31T12:36:15.391Z,18.40
2022-12-31T12:38:42.799Z,18.44
2022-12-31T12:41:25.492Z,18.43
2022-12-31T12:44:14.300Z,18.40
2022-12-31T12:46:49.571Z,18.40
2022-12-31T12:49:39.692Z,18.39
2022-12-31T12:52:33.975Z,18.41
2022-12-31T12:55:18.568Z,18.43
2022-12-31T12:58:22.514Z,18.40
2022-12-31T13:01:10.674Z,18.42
2022-12-31T13:04:31.969Z,18.41
2022-12-31T13:06:52.432Z,18.34
2022-12-31T13:09:37.371Z,18.38
2022-12-31T13:12:07.529Z,18.24
2022-12-31T13:14:40.067Z,18.22
2022-12-31T13:17:32.637Z,18.17
2022-12-31T13:20:19.926Z,18.09
2022-12-31T13:23:03.281Z,18.16
2022-12-31T13:25:35.810Z,18.17
2022-12-31T13:28:11.824Z,18.12
2022-12-31T13:30:43.039Z,18.07
2022-12-31T13:33:15.480Z,18.04
2022-12-31T13:35:57.780Z,18.09
2022-12-31T13:38:29.343Z,18.06
2022-12-31T13:41:17.527Z,18.02
2022-12-31T13:43:58.561Z,18.01
2022-12-31T13:46:40.108Z,18.01
2022-12-31T13:49:31.616Z,18.00
2022-12-31T13:51:58.133Z,17.97
2022-12-31T13:54:30.911Z,17.98
2022-12-31T13:57:04.581Z,17.90
2022-12-31T13:59:43.089Z,17.90
2022-12-31T14:02:15.933Z,17.86
2022-12-31T14:04:49.814Z,17.85
2022-12-31T14:07:38.924Z,17.87
2022-12-31T14:10:13.678Z,17.85
2022-12-31T14:13:00.336Z,17.80
2022-12-31T14:15:33.361Z,17.84
2022-12-31T14:18:10.918Z,17.80
2022-12-31T14:20:40.223Z,17.75
2022-12-31T14:23:18.270Z,17.74
2022-12-31T14:25:54.333Z,17.74
2022-12-31T14:29:02.174Z,17.61
2022-12-31T14:31:49.811Z,17.57
2022-12-31T14:34:29.567Z,17.57
2022-12-31T14:37:14.233Z,17.58
2022-12-31T14:39:46.666Z,17.54
2022-12-31T14:42:24.591Z,17.48
2022-12-31T14:45:17.039Z,17.45
2022-12-31T14:47:43.558Z,17.40
2022-12-31T14:50:17.308Z,17.46
2022-12-31T14:52:56.083Z,17.30
2022-12-31T14:55:22.926Z,17.29
2022-12-31T15:00:39.999Z,17.24
2022-12-31T15:03:42.969Z,17.29
2022-12-31T15:06:24.068Z,17.28
2022-12-31T15:09:27.865Z,17.35
2022-12-31T15:12:09.666Z,17.45
2022-12-31T15:15:13.802Z,17.35
2022-12-31T15:18:12.845Z,17.45
2022-12-31T15:20:45.306Z,17.46
2022-12-31T15:23:17.047Z,17.37
2022-12-31T15:25:48.855Z,17.40
2022-12-31T15:28:31.973Z,17.36
2022-12-31T15:31:06.090Z,17.22
2022-12-31T15:33:39.475Z,17.19
2022-12-31T15:36:39.015Z,17.14
2022-12-31T15:39:11.863Z,17.12
2022-12-31T15:42:18.601Z,16.99
2022-12-31T15:44:59.239Z,16.84
2022-12-31T15:47:36.965Z,16.98
2022-12-31T15:50:07.974Z,16.89
2022-12-31T15:52:39.544Z,16.86
2022-12-31T15:55:07.059Z,16.79
2022-12-31T15:57:39.186Z,16.74
2022-12-31T16:00:17.338Z,16.59
2022-12-31T16:02:45.319Z,16.45
2022-12-31T16:05:19.383Z,16.51
2022-12-31T16:07:46.464Z,16.66
2022-12-31T16:10:21.505Z,16.53
2022-12-31T16:12:48.800Z,16.36
2022-12-31T16:15:28.469Z,16.23
2022-12-31T16:18:14.672Z,16.44
2022-12-31T16:20:48.391Z,16.60
2022-12-31T16:23:26.087Z,16.56
2022-12-31T16:25:58.468Z,16.55
2022-12-31T16:28:30.533Z,16.62
2022-12-31T16:31:06.184Z,16.75
2022-12-31T16:33:33.238Z,16.78
2022-12-31T16:36:02.453Z,16.86
2022-12-31T16:38:35.353Z,16.85
2022-12-31T16:41:02.008Z,16.89
2022-12-31T16:43:30.182Z,16.89
2022-12-31T16:46:15.362Z,16.86
2022-12-31T16:48:50.560Z,16.82
2022-12-31T16:51:20.473Z,16.81
2022-12-31T16:53:48.372Z,16.77
2022-12-31T16:56:24.262Z,16.74
2022-12-31T16:58:57.100Z,16.75
2022-12-31T17:01:27.995Z,16.62
2022-12-31T17:04:00.726Z,16.66
2022-12-31T17:06:28.446Z,16.61
2022-12-31T17:09:00.832Z,16.82
2022-12-31T17:11:30.392Z,16.88
2022-12-31T17:14:22.981Z,16.64
2022-12-31T17:17:06.230Z,16.71
2022-12-31T17:19:49.173Z,16.57
2022-12-31T17:22:30.722Z,16.44
2022-12-31T17:25:07.035Z,16.64
2022-12-31T17:27:35.941Z,16.67
2022-12-31T17:30:30.119Z,16.75
2022-12-31T17:33:00.553Z,16.80
2022-12-31T17:35:31.605Z,16.85
2022-12-31T17:38:36.511Z,16.92
2022-12-31T17:41:05.941Z,16.99
2022-12-31T17:43:35.625Z,17.00
2022-12-31T17:46:09.016Z,16.95
2022-12-31T17:48:36.783Z,16.78
2022-12-31T17:51:03.360Z,16.85
2022-12-31T17:53:29.986Z,16.79
2022-12-31T17:56:00.716Z,16.75
2022-12-31T17:58:35.042Z,16.66
2022-12-31T18:01:05.189Z,16.74
2022-12-31T18:03:32.001Z,16.72
2022-12-31T18:05:58.654Z,16.61
2022-12-31T18:08:25.195Z,16.48
2022-12-31T18:10:54.013Z,16.53
2022-12-31T18:13:23.934Z,16.52
2022-12-31T18:15:50.806Z,16.28
2022-12-31T18:18:25.936Z,16.30
2022-12-31T18:20:57.707Z,16.07
2022-12-31T18:23:32.528Z,15.97
2022-12-31T18:25:59.105Z,16.08
2022-12-31T18:28:25.600Z,15.99
2022-12-31T18:30:52.573Z,15.86
2022-12-31T18:33:22.462Z,16.00
2022-12-31T18:36:09.665Z,16.00
2022-12-31T18:38:36.953Z,16.05
2022-12-31T18:41:04.375Z,15.80
2022-12-31T18:43:30.992Z,15.72
2022-12-31T18:45:57.925Z,15.76
2022-12-31T18:48:24.739Z,15.65
2022-12-31T18:50:51.416Z,15.82
2022-12-31T18:53:22.918Z,15.54
2022-12-31T18:55:58.258Z,15.50
2022-12-31T18:58:24.829Z,15.51
2022-12-31T19:00:52.273Z,15.25
2022-12-31T19:03:22.056Z,14.91
2022-12-31T19:05:50.770Z,15.02
2022-12-31T19:08:22.407Z,15.24
2022-12-31T19:10:51.601Z,14.89
2022-12-31T19:13:19.801Z,14.70
2022-12-31T19:15:53.099Z,14.97
2022-12-31T19:18:19.667Z,15.01
2022-12-31T19:20:46.448Z,15.01
2022-12-31T19:23:20.368Z,15.27
2022-12-31T19:25:47.975Z,15.28
2022-12-31T19:28:23.774Z,15.32
2022-12-31T19:30:50.781Z,15.23
2022-12-31T19:33:18.073Z,15.35
2022-12-31T19:35:45.449Z,15.44
2022-12-31T19:38:23.737Z,15.48
2022-12-31T19:40:51.738Z,15.41
2022-12-31T19:43:20.171Z,16.11
2022-12-31T19:45:47.402Z,16.11
2022-12-31T19:48:16.916Z,16.10
2022-12-31T19:50:46.751Z,16.31
2022-12-31T19:53:17.394Z,16.23
2022-12-31T19:55:43.938Z,16.25
2022-12-31T19:58:26.047Z,16.41
2022-12-31T20:00:59.616Z,16.41
2022-12-31T20:03:28.860Z,16.35
2022-12-31T20:06:08.085Z,16.22
2022-12-31T20:08:36.046Z,16.47
2022-12-31T20:11:17.420Z,16.53
2022-12-31T20:13:44.426Z,16.65
2022-12-31T20:16:13.652Z,16.71
2022-12-31T20:18:41.505Z,16.59
2022-12-31T20:21:17.924Z,16.73
2022-12-31T20:23:44.720Z,16.75
2022-12-31T20:26:11.742Z,16.72
2022-12-31T20:28:38.943Z,16.86
2022-12-31T20:31:10.305Z,16.82
2022-12-31T20:33:37.430Z,16.70
2022-12-31T20:36:05.970Z,16.83
2022-12-31T20:38:32.640Z,16.86
2022-12-31T20:41:04.304Z,16.88
2022-12-31T20:43:32.832Z,16.86
2022-12-31T20:45:59.517Z,16.91
2022-12-31T20:48:26.234Z,16.98
2022-12-31T20:50:56.974Z,16.92
2022-12-31T20:53:23.544Z,17.01
2022-12-31T20:55:50.423Z,16.95
2022-12-31T20:58:17.331Z,16.97
2022-12-31T21:00:53.427Z,16.93
2022-12-31T21:04:02.352Z,16.91
2022-12-31T21:06:07.035Z,17.01
2022-12-31T21:08:35.156Z,16.87
2022-12-31T21:11:02.590Z,17.00
2022-12-31T21:13:29.161Z,17.16
2022-12-31T21:15:55.952Z,17.22
2022-12-31T21:18:23.350Z,17.17
2022-12-31T21:20:51.582Z,17.04
2022-12-31T21:23:19.405Z,17.03
2022-12-31T21:25:48.805Z,17.14
2022-12-31T21:28:15.335Z,17.04
2022-12-31T21:30:42.075Z,17.18
2022-12-31T21:33:08.685Z,17.16
2022-12-31T21:35:47.082Z,17.07
2022-12-31T21:38:18.536Z,17.19
2022-12-31T21:40:45.479Z,17.14
2022-12-31T21:43:13.102Z,17.14
2022-12-31T21:45:39.928Z,17.19
2022-12-31T21:48:23.423Z,17.21
2022-12-31T21:50:53.446Z,17.23
2022-12-31T21:53:26.129Z,17.13
2022-12-31T21:56:10.550Z,17.14
2022-12-31T21:58:43.150Z,17.09
2022-12-31T22:01:41.606Z,16.99
2022-12-31T22:04:28.285Z,17.07
2022-12-31T22:06:54.750Z,17.01
2022-12-31T22:09:21.301Z,17.14
2022-12-31T22:11:47.891Z,17.18
2022-12-31T22:14:14.425Z,17.08
2022-12-31T22:16:41.032Z,17.12
2022-12-31T22:19:08.006Z,17.07
2022-12-31T22:21:34.604Z,17.05
2022-12-31T22:24:03.104Z,16.94
2022-12-31T22:26:29.701Z,17.03
2022-12-31T22:28:59.207Z,17.03
2022-12-31T22:31:29.912Z,17.10
2022-12-31T22:33:58.147Z,17.05
2022-12-31T22:36:24.839Z,17.05
2022-12-31T22:38:55.928Z,17.13
2022-12-31T22:41:23.239Z,17.12
2022-12-31T22:43:58.465Z,17.10
2022-12-31T22:46:29.169Z,17.05
2022-12-31T22:48:58.443Z,16.98
2022-12-31T22:51:28.087Z,17.05
2022-12-31T22:54:11.905Z,17.12
2022-12-31T22:56:38.429Z,17.06
2022-12-31T22:59:05.216Z,17.09
2022-12-31T23:01:31.791Z,17.04
2022-12-31T23:03:58.357Z,16.97
2022-12-31T23:06:25.102Z,17.10
2022-12-31T23:09:11.756Z,17.17
2022-12-31T23:11:39.542Z,17.14
2022-12-31T23:14:25.818Z,17.16
2022-12-31T23:17:31.236Z,17.15
2022-12-31T23:20:15.999Z,17.07
2022-12-31T23:23:00.825Z,16.97
2022-12-31T23:25:27.384Z,17.06
2022-12-31T23:27:53.928Z,17.02
2022-12-31T23:30:20.538Z,17.04
2022-12-31T23:32:47.057Z,17.05
2022-12-31T23:35:14.003Z,16.88
2022-12-31T23:37:40.518Z,16.97
2022-12-31T23:40:07.840Z,16.89
2022-12-31T23:42:34.401Z,16.85
2022-12-31T23:45:00.965Z,16.89
2022-12-31T23:47:27.546Z,17.02
2022-12-31T23:49:54.063Z,17.06
2022-12-31T23:52:20.620Z,16.97
2022-12-31T23:54:47.149Z,16.96
2022-12-31T23:57:13.670Z,16.95
2022-12-31T23:59:40.205Z,16.89
